createdAt,value
2023-05-24T00:00:30.146Z,0.00
2023-05-24T00:01:30.135Z,0.00
2023-05-24T00:02:30.183Z,0.00
2023-05-24T00:03:30.180Z,0.00
2023-05-24T00:04:30.359Z,0.00
2023-05-24T00:05:30.089Z,0.00
2023-05-24T00:06:30.063Z,0.00
2023-05-24T00:07:30.049Z,0.00
2023-05-24T00:08:30.046Z,0.00
2023-05-24T00:09:30.029Z,0.00
2023-05-24T00:10:30.027Z,0.00
2023-05-24T00:11:30.007Z,0.00
2023-05-24T00:12:29.990Z,0.00
2023-05-24T00:13:29.991Z,0.00
2023-05-24T00:14:29.973Z,0.00
2023-05-24T00:15:29.965Z,0.00
2023-05-24T00:16:29.968Z,0.00
2023-05-24T00:17:29.959Z,0.00
2023-05-24T00:18:29.911Z,0.00
2023-05-24T00:19:29.917Z,0.00
2023-05-24T00:20:29.965Z,0.00
2023-05-24T00:21:29.879Z,0.00
2023-05-24T00:22:29.861Z,0.00
2023-05-24T00:23:29.846Z,0.00
2023-05-24T00:24:29.851Z,0.00
2023-05-24T00:25:29.836Z,0.00
2023-05-24T00:26:29.807Z,0.00
2023-05-24T00:27:29.789Z,0.00
2023-05-24T00:28:29.786Z,0.00
2023-05-24T00:29:32.101Z,0.00
2023-05-24T00:30:29.756Z,0.00
2023-05-24T00:31:29.793Z,0.00
2023-05-24T00:32:29.759Z,0.00
2023-05-24T00:33:29.747Z,0.00
2023-05-24T00:34:29.718Z,0.00
2023-05-24T00:35:29.698Z,0.00
2023-05-24T00:36:29.682Z,0.00
2023-05-24T00:37:29.715Z,0.00
2023-05-24T00:38:29.653Z,0.00
2023-05-24T00:39:29.659Z,0.00
2023-05-24T00:40:29.630Z,0.00
2023-05-24T00:41:29.642Z,0.00
2023-05-24T00:42:29.600Z,0.00
2023-05-24T00:43:29.593Z,0.00
2023-05-24T00:44:29.602Z,0.00
2023-05-24T00:45:30.846Z,0.00
2023-05-24T00:46:29.610Z,0.00
2023-05-24T00:47:29.628Z,0.00
2023-05-24T00:48:29.659Z,0.00
2023-05-24T00:49:29.531Z,0.00
2023-05-24T00:50:29.508Z,0.00
2023-05-24T00:51:29.527Z,0.00
2023-05-24T00:52:29.527Z,0.00
2023-05-24T00:53:29.516Z,0.00
2023-05-24T00:54:29.449Z,0.00
2023-05-24T00:55:29.459Z,0.00
2023-05-24T00:56:29.436Z,0.00
2023-05-24T00:57:29.427Z,0.00
2023-05-24T00:58:29.401Z,0.00
2023-05-24T00:59:29.387Z,0.00
2023-05-24T01:00:29.384Z,0.00
2023-05-24T01:01:29.392Z,0.00
2023-05-24T01:02:29.433Z,0.00
2023-05-24T01:03:29.529Z,0.00
2023-05-24T01:04:29.317Z,0.00
2023-05-24T01:05:29.320Z,0.00
2023-05-24T01:06:29.314Z,0.00
2023-05-24T01:07:29.302Z,0.00
2023-05-24T01:08:29.278Z,0.00
2023-05-24T01:09:29.260Z,0.00
2023-05-24T01:10:29.251Z,0.00
2023-05-24T01:11:29.261Z,0.00
2023-05-24T01:12:29.227Z,0.00
2023-05-24T01:13:29.220Z,0.00
2023-05-24T01:14:29.215Z,0.00
2023-05-24T01:15:29.189Z,0.00
2023-05-24T01:16:29.243Z,0.00
2023-05-24T01:17:29.250Z,0.00
2023-05-24T01:18:29.164Z,0.00
2023-05-24T01:19:29.144Z,0.00
2023-05-24T01:20:29.139Z,0.00
2023-05-24T01:21:29.132Z,0.00
2023-05-24T01:22:29.095Z,0.00
2023-05-24T01:23:29.083Z,0.00
2023-05-24T01:24:29.071Z,0.00
2023-05-24T01:25:29.073Z,0.00
2023-05-24T01:26:29.065Z,0.00
2023-05-24T01:27:29.041Z,0.00
2023-05-24T01:28:29.020Z,0.00
2023-05-24T01:29:29.018Z,0.00
2023-05-24T01:30:29.005Z,0.00
2023-05-24T01:31:29.020Z,0.00
2023-05-24T01:32:29.060Z,0.00
2023-05-24T01:33:28.963Z,0.00
2023-05-24T01:34:28.950Z,0.00
2023-05-24T01:35:28.926Z,0.00
2023-05-24T01:36:28.942Z,0.00
2023-05-24T01:37:28.896Z,0.00
2023-05-24T01:38:28.895Z,0.00
2023-05-24T01:39:28.897Z,0.00
2023-05-24T01:40:28.892Z,0.00
2023-05-24T01:41:28.853Z,0.00
2023-05-24T01:42:28.851Z,0.00
2023-05-24T01:43:28.832Z,0.00
2023-05-24T01:44:28.826Z,0.00
2023-05-24T01:45:28.799Z,0.00
2023-05-24T01:46:28.812Z,0.00
2023-05-24T01:47:28.773Z,0.00
2023-05-24T01:48:28.753Z,0.00
2023-05-24T01:49:28.757Z,0.00
2023-05-24T01:50:28.733Z,0.00
2023-05-24T01:51:28.731Z,0.00
2023-05-24T01:52:28.717Z,0.00
2023-05-24T01:53:28.712Z,0.00
2023-05-24T01:54:28.692Z,0.00
2023-05-24T01:55:28.676Z,0.00
2023-05-24T01:56:28.673Z,0.00
2023-05-24T01:57:28.643Z,0.00
2023-05-24T01:58:28.642Z,0.00
2023-05-24T01:59:28.622Z,0.00
2023-05-24T02:00:28.646Z,0.00
2023-05-24T02:01:28.662Z,0.00
2023-05-24T02:02:28.696Z,0.00
2023-05-24T02:03:28.625Z,0.00
2023-05-24T02:04:28.553Z,0.00
2023-05-24T02:05:28.534Z,0.00
2023-05-24T02:06:28.526Z,0.00
2023-05-24T02:07:28.527Z,0.00
2023-05-24T02:08:28.510Z,0.00
2023-05-24T02:09:28.484Z,0.00
2023-05-24T02:10:28.477Z,0.00
2023-05-24T02:11:28.468Z,0.00
2023-05-24T02:12:28.452Z,0.00
2023-05-24T02:13:28.439Z,0.00
2023-05-24T02:14:28.433Z,0.00
2023-05-24T02:15:28.406Z,0.00
2023-05-24T02:16:28.429Z,0.00
2023-05-24T02:17:28.419Z,0.00
2023-05-24T02:18:28.367Z,0.00
2023-05-24T02:19:28.373Z,0.00
2023-05-24T02:20:28.395Z,0.00
2023-05-24T02:21:28.351Z,0.00
2023-05-24T02:22:28.351Z,0.00
2023-05-24T02:23:28.325Z,0.00
2023-05-24T02:24:28.302Z,0.00
2023-05-24T02:25:28.275Z,0.00
2023-05-24T02:26:28.270Z,0.00
2023-05-24T02:27:28.275Z,0.00
2023-05-24T02:28:28.242Z,0.00
2023-05-24T02:29:28.260Z,0.00
2023-05-24T02:30:28.226Z,0.00
2023-05-24T02:31:28.269Z,0.00
2023-05-24T02:32:28.196Z,0.00
2023-05-24T02:33:28.183Z,0.00
2023-05-24T02:34:28.171Z,0.00
2023-05-24T02:35:28.184Z,0.00
2023-05-24T02:36:28.151Z,0.00
2023-05-24T02:37:28.156Z,0.00
2023-05-24T02:38:28.118Z,0.00
2023-05-24T02:39:28.107Z,0.00
2023-05-24T02:40:28.089Z,0.00
2023-05-24T02:41:28.074Z,0.00
2023-05-24T02:42:28.060Z,0.00
2023-05-24T02:43:28.059Z,0.00
2023-05-24T02:44:28.027Z,0.00
2023-05-24T02:45:28.040Z,0.00
2023-05-24T02:46:28.039Z,0.00
2023-05-24T02:47:28.006Z,0.00
2023-05-24T02:48:27.997Z,0.00
2023-05-24T02:49:27.956Z,0.00
2023-05-24T02:50:27.968Z,0.00
2023-05-24T02:51:27.951Z,0.00
2023-05-24T02:52:27.935Z,0.00
2023-05-24T02:53:27.918Z,0.00
2023-05-24T02:54:27.919Z,0.00
2023-05-24T02:55:27.890Z,0.00
2023-05-24T02:56:27.883Z,0.00
2023-05-24T02:57:27.865Z,0.00
2023-05-24T02:58:27.862Z,0.00
2023-05-24T02:59:27.856Z,0.00
2023-05-24T03:00:27.822Z,0.00
2023-05-24T03:01:27.860Z,0.00
2023-05-24T03:02:27.860Z,0.00
2023-05-24T03:03:27.882Z,0.00
2023-05-24T03:04:27.784Z,4.00
2023-05-24T03:05:27.795Z,4.00
2023-05-24T03:06:27.749Z,4.00
2023-05-24T03:07:27.735Z,0.00
2023-05-24T03:08:27.730Z,0.00
2023-05-24T03:09:27.715Z,0.00
2023-05-24T03:10:27.706Z,4.00
2023-05-24T03:11:27.686Z,4.00
2023-05-24T03:12:27.672Z,0.00
2023-05-24T03:13:27.678Z,4.00
2023-05-24T03:14:27.651Z,4.00
2023-05-24T03:15:27.638Z,4.00
2023-05-24T03:16:27.658Z,4.00
2023-05-24T03:17:27.616Z,4.00
2023-05-24T03:18:27.610Z,4.00
2023-05-24T03:19:27.583Z,4.00
2023-05-24T03:20:27.707Z,8.00
2023-05-24T03:21:27.603Z,8.00
2023-05-24T03:22:27.568Z,4.00
2023-05-24T03:23:27.539Z,8.00
2023-05-24T03:24:27.532Z,8.00
2023-05-24T03:25:27.518Z,8.00
2023-05-24T03:26:27.501Z,8.00
2023-05-24T03:27:27.479Z,8.00
2023-05-24T03:28:27.493Z,12.00
2023-05-24T03:29:27.461Z,8.00
2023-05-24T03:30:27.439Z,12.00
2023-05-24T03:31:27.430Z,12.00
2023-05-24T03:32:27.466Z,12.00
2023-05-24T03:33:27.419Z,12.00
2023-05-24T03:34:27.399Z,12.00
2023-05-24T03:35:27.374Z,12.00
2023-05-24T03:36:27.406Z,12.00
2023-05-24T03:37:27.350Z,16.00
2023-05-24T03:38:27.343Z,16.00
2023-05-24T03:39:27.332Z,16.00
2023-05-24T03:40:27.314Z,16.00
2023-05-24T03:41:27.311Z,16.00
2023-05-24T03:42:27.293Z,20.00
2023-05-24T03:43:27.282Z,20.00
2023-05-24T03:44:27.271Z,20.00
2023-05-24T03:45:38.663Z,24.00
2023-05-24T03:46:28.312Z,24.00
2023-05-24T03:47:27.271Z,24.00
2023-05-24T03:48:27.219Z,28.00
2023-05-24T03:49:27.204Z,28.00
2023-05-24T04:02:56.042Z,52.00
2023-05-24T04:03:55.923Z,52.00
2023-05-24T04:04:55.884Z,56.00
2023-05-24T04:05:55.873Z,56.00
2023-05-24T04:06:55.832Z,56.00
2023-05-24T04:07:55.825Z,60.00
2023-05-24T04:08:55.801Z,56.00
2023-05-24T04:09:55.814Z,60.00
2023-05-24T04:10:55.782Z,64.00
2023-05-24T04:11:55.775Z,64.00
2023-05-24T04:12:55.759Z,68.00
2023-05-24T04:13:55.754Z,72.00
2023-05-24T04:14:55.745Z,72.00
2023-05-24T04:15:55.724Z,76.00
2023-05-24T04:16:55.787Z,72.00
2023-05-24T04:17:55.907Z,76.00
2023-05-24T04:18:55.790Z,76.00
2023-05-24T04:19:55.699Z,76.00
2023-05-24T04:20:55.658Z,80.00
2023-05-24T04:21:55.657Z,80.00
2023-05-24T04:22:55.634Z,88.00
2023-05-24T04:23:55.630Z,92.00
2023-05-24T04:24:55.660Z,92.00
2023-05-24T04:25:55.597Z,100.00
2023-05-24T04:26:55.588Z,100.00
2023-05-24T04:27:55.578Z,104.00
2023-05-24T04:28:55.581Z,108.00
2023-05-24T04:29:55.553Z,112.00
2023-05-24T04:30:55.546Z,112.00
2023-05-24T04:31:55.518Z,116.00
2023-05-24T04:32:55.652Z,116.00
2023-05-24T04:33:55.480Z,112.00
2023-05-24T04:34:55.472Z,116.00
2023-05-24T04:35:55.474Z,116.00
2023-05-24T04:36:55.446Z,120.00
2023-05-24T04:37:55.458Z,124.00
2023-05-24T04:38:55.425Z,128.00
2023-05-24T04:39:55.399Z,136.00
2023-05-24T04:40:55.401Z,140.00
2023-05-24T04:41:55.382Z,152.00
2023-05-24T04:42:55.384Z,160.00
2023-05-24T04:43:55.348Z,164.00
2023-05-24T04:44:55.348Z,168.00
2023-05-24T04:45:55.331Z,172.00
2023-05-24T04:46:55.350Z,176.00
2023-05-24T04:47:55.347Z,176.00
2023-05-24T04:48:55.297Z,180.00
2023-05-24T04:49:55.283Z,180.00
2023-05-24T04:50:55.276Z,188.00
2023-05-24T04:51:55.358Z,196.00
2023-05-24T04:52:55.258Z,204.00
2023-05-24T04:53:55.246Z,216.00
2023-05-24T04:54:55.232Z,232.00
2023-05-24T04:55:55.201Z,244.00
2023-05-24T04:56:55.194Z,260.00
2023-05-24T04:57:55.173Z,272.00
2023-05-24T04:58:55.158Z,284.00
2023-05-24T04:59:55.149Z,300.00
2023-05-24T05:00:55.137Z,308.00
2023-05-24T05:01:55.151Z,316.00
2023-05-24T05:02:55.217Z,320.00
2023-05-24T05:03:55.159Z,324.00
2023-05-24T05:04:55.095Z,324.00
2023-05-24T05:05:55.090Z,324.00
2023-05-24T05:06:55.063Z,320.00
2023-05-24T05:07:55.044Z,316.00
2023-05-24T05:08:55.042Z,320.00
2023-05-24T05:09:55.036Z,324.00
2023-05-24T05:10:55.013Z,340.00
2023-05-24T05:11:54.985Z,360.00
2023-05-24T05:12:55.004Z,368.00
2023-05-24T05:13:54.972Z,372.00
2023-05-24T05:14:54.973Z,380.00
2023-05-24T05:15:54.945Z,384.00
2023-05-24T05:16:55.028Z,372.00
2023-05-24T05:17:54.942Z,360.00
2023-05-24T05:18:54.898Z,344.00
2023-05-24T05:19:54.930Z,336.00
2023-05-24T05:20:54.883Z,332.00
2023-05-24T05:21:54.850Z,328.00
2023-05-24T05:22:54.843Z,328.00
2023-05-24T05:23:54.839Z,332.00
2023-05-24T05:24:54.846Z,340.00
2023-05-24T05:25:54.822Z,360.00
2023-05-24T05:26:54.802Z,376.00
2023-05-24T05:27:54.781Z,392.00
2023-05-24T05:28:54.788Z,396.00
2023-05-24T05:29:54.771Z,392.00
2023-05-24T05:30:54.744Z,384.00
2023-05-24T05:31:54.747Z,372.00
2023-05-24T05:32:54.772Z,360.00
2023-05-24T05:33:54.704Z,348.00
2023-05-24T05:34:54.699Z,332.00
2023-05-24T05:35:55.029Z,320.00
2023-05-24T05:36:54.661Z,312.00
2023-05-24T05:37:54.634Z,316.00
2023-05-24T05:38:54.651Z,328.00
2023-05-24T05:39:54.640Z,340.00
2023-05-24T05:40:54.598Z,348.00
2023-05-24T05:41:54.582Z,352.00
2023-05-24T05:42:54.590Z,352.00
2023-05-24T05:43:54.570Z,364.00
2023-05-24T05:44:54.571Z,368.00
2023-05-24T05:45:54.559Z,364.00
2023-05-24T05:46:54.527Z,368.00
2023-05-24T05:47:54.567Z,364.00
2023-05-24T05:48:54.515Z,368.00
2023-05-24T05:49:54.501Z,380.00
2023-05-24T05:50:54.475Z,400.00
2023-05-24T05:51:54.481Z,412.00
2023-05-24T05:52:54.472Z,420.00
2023-05-24T05:53:54.452Z,412.00
2023-05-24T05:54:54.425Z,416.00
2023-05-24T05:55:54.448Z,424.00
2023-05-24T05:56:54.399Z,428.00
2023-05-24T05:57:54.404Z,436.00
2023-05-24T05:58:54.373Z,444.00
2023-05-24T05:59:54.370Z,456.00
2023-05-24T06:00:54.382Z,464.00
2023-05-24T06:01:54.324Z,480.00
2023-05-24T06:02:54.413Z,492.00
2023-05-24T06:03:54.321Z,508.00
2023-05-24T06:04:54.423Z,524.00
2023-05-24T06:05:54.275Z,532.00
2023-05-24T06:06:54.258Z,528.00
2023-05-24T06:07:54.259Z,512.00
2023-05-24T06:08:54.254Z,496.00
2023-05-24T06:09:54.220Z,476.00
2023-05-24T06:10:54.226Z,468.00
2023-05-24T06:11:54.217Z,472.00
2023-05-24T06:12:54.202Z,480.00
2023-05-24T06:13:54.173Z,492.00
2023-05-24T06:14:54.156Z,504.00
2023-05-24T06:15:54.153Z,520.00
2023-05-24T06:16:54.153Z,540.00
2023-05-24T06:17:54.169Z,552.00
2023-05-24T06:19:05.425Z,560.00
2023-05-24T06:19:55.122Z,568.00
2023-05-24T06:20:54.084Z,580.00
2023-05-24T06:21:54.068Z,584.00
2023-05-24T06:22:54.062Z,576.00
2023-05-24T06:23:54.028Z,552.00
2023-05-24T06:24:54.035Z,532.00
2023-05-24T06:25:54.010Z,512.00
2023-05-24T06:26:54.013Z,500.00
2023-05-24T06:27:53.982Z,504.00
2023-05-24T06:28:53.983Z,532.00
2023-05-24T06:29:53.972Z,560.00
2023-05-24T06:30:54.002Z,580.00
2023-05-24T06:31:54.011Z,588.00
2023-05-24T06:32:53.972Z,580.00
2023-05-24T06:34:03.924Z,580.00
2023-05-24T06:34:54.907Z,592.00
2023-05-24T06:35:53.902Z,608.00
2023-05-24T06:36:53.896Z,624.00
2023-05-24T06:37:53.871Z,636.00
2023-05-24T06:38:53.853Z,652.00
2023-05-24T06:39:53.824Z,652.00
2023-05-24T06:40:53.831Z,656.00
2023-05-24T06:41:53.815Z,652.00
2023-05-24T06:42:53.786Z,660.00
2023-05-24T06:43:53.769Z,672.00
2023-05-24T06:44:53.773Z,696.00
2023-05-24T06:45:53.751Z,712.00
2023-05-24T06:46:53.786Z,716.00
2023-05-24T06:47:53.825Z,712.00
2023-05-24T06:48:53.794Z,716.00
2023-05-24T06:49:53.708Z,728.00
2023-05-24T06:50:53.709Z,716.00
2023-05-24T06:51:53.663Z,708.00
2023-05-24T06:52:53.683Z,716.00
2023-05-24T06:53:53.648Z,724.00
2023-05-24T06:54:53.645Z,748.00
2023-05-24T06:55:55.552Z,768.00
2023-05-24T06:56:53.623Z,756.00
2023-05-24T06:57:53.591Z,736.00
2023-05-24T06:58:53.592Z,692.00
2023-05-24T06:59:53.578Z,672.00
2023-05-24T07:00:53.589Z,672.00
2023-05-24T07:01:53.600Z,660.00
2023-05-24T07:02:53.627Z,672.00
2023-05-24T07:03:53.509Z,696.00
2023-05-24T07:04:53.530Z,708.00
2023-05-24T07:05:53.484Z,700.00
2023-05-24T07:06:53.481Z,688.00
2023-05-24T07:07:53.462Z,696.00
2023-05-24T07:08:53.491Z,696.00
2023-05-24T07:09:53.443Z,696.00
2023-05-24T07:10:53.432Z,696.00
2023-05-24T07:11:53.416Z,716.00
2023-05-24T07:12:53.391Z,720.00
2023-05-24T07:13:53.387Z,796.00
2023-05-24T07:14:53.379Z,844.00
2023-05-24T07:15:53.375Z,852.00
2023-05-24T07:16:53.386Z,856.00
2023-05-24T07:17:53.370Z,864.00
2023-05-24T07:18:53.334Z,884.00
2023-05-24T07:19:53.334Z,924.00
2023-05-24T07:20:53.375Z,952.00
2023-05-24T07:21:53.274Z,952.00
2023-05-24T07:22:53.259Z,940.00
2023-05-24T07:23:53.259Z,924.00
2023-05-24T07:24:53.243Z,932.00
2023-05-24T07:25:53.225Z,960.00
2023-05-24T07:26:53.222Z,1004.00
2023-05-24T07:27:53.204Z,1032.00
2023-05-24T07:28:53.190Z,1064.00
2023-05-24T07:29:53.183Z,1076.00
2023-05-24T07:30:53.346Z,1068.00
2023-05-24T07:31:53.193Z,1052.00
2023-05-24T07:32:53.359Z,1036.00
2023-05-24T07:33:53.125Z,1032.00
2023-05-24T07:34:53.119Z,1072.00
2023-05-24T07:35:53.109Z,1120.00
2023-05-24T07:36:53.078Z,1148.00
2023-05-24T07:37:53.070Z,1156.00
2023-05-24T07:38:53.043Z,1144.00
2023-05-24T07:39:53.035Z,1104.00
2023-05-24T07:40:53.017Z,1040.00
2023-05-24T07:41:53.029Z,976.00
2023-05-24T07:42:53.009Z,936.00
2023-05-24T07:43:52.993Z,916.00
2023-05-24T07:44:52.979Z,900.00
2023-05-24T07:45:52.960Z,884.00
2023-05-24T07:46:53.051Z,880.00
2023-05-24T07:47:55.286Z,876.00
2023-05-24T07:48:52.924Z,884.00
2023-05-24T07:49:52.916Z,904.00
2023-05-24T07:50:52.937Z,924.00
2023-05-24T07:51:52.935Z,928.00
2023-05-24T07:52:52.885Z,916.00
2023-05-24T07:53:52.868Z,884.00
2023-05-24T07:54:52.858Z,852.00
2023-05-24T07:55:52.838Z,844.00
2023-05-24T07:56:52.827Z,864.00
2023-05-24T07:57:52.814Z,888.00
2023-05-24T07:58:52.795Z,908.00
2023-05-24T07:59:52.779Z,912.00
2023-05-24T08:00:52.759Z,908.00
2023-05-24T08:01:52.841Z,888.00
2023-05-24T08:02:52.796Z,856.00
2023-05-24T08:03:52.892Z,840.00
2023-05-24T08:04:52.704Z,832.00
2023-05-24T08:05:52.697Z,828.00
2023-05-24T08:06:52.773Z,812.00
2023-05-24T08:07:52.681Z,784.00
2023-05-24T08:08:52.662Z,748.00
2023-05-24T08:09:52.651Z,724.00
2023-05-24T08:10:52.641Z,712.00
2023-05-24T08:11:52.698Z,720.00
2023-05-24T08:12:52.598Z,744.00
2023-05-24T08:13:52.605Z,768.00
2023-05-24T08:14:52.583Z,784.00
2023-05-24T08:15:52.596Z,800.00
2023-05-24T08:16:52.584Z,800.00
2023-05-24T08:17:52.575Z,776.00
2023-05-24T08:18:54.983Z,756.00
2023-05-24T08:19:52.577Z,764.00
2023-05-24T08:20:52.511Z,808.00
2023-05-24T08:21:52.541Z,844.00
2023-05-24T08:22:52.491Z,828.00
2023-05-24T08:23:52.464Z,784.00
2023-05-24T08:24:52.460Z,736.00
2023-05-24T08:25:52.427Z,708.00
2023-05-24T08:26:52.424Z,716.00
2023-05-24T08:27:52.474Z,732.00
2023-05-24T08:28:52.396Z,756.00
2023-05-24T08:29:54.694Z,764.00
2023-05-24T08:30:52.370Z,764.00
2023-05-24T08:31:52.443Z,752.00
2023-05-24T08:32:52.498Z,728.00
2023-05-24T08:33:52.347Z,716.00
2023-05-24T08:34:57.994Z,720.00
2023-05-24T08:35:53.305Z,736.00
2023-05-24T08:36:52.295Z,744.00
2023-05-24T08:37:52.279Z,752.00
2023-05-24T08:38:52.276Z,756.00
2023-05-24T08:39:52.248Z,764.00
2023-05-24T08:40:52.266Z,788.00
2023-05-24T08:42:08.064Z,820.00
2023-05-24T08:42:53.217Z,864.00
2023-05-24T08:43:52.223Z,900.00
2023-05-24T08:44:52.187Z,912.00
2023-05-24T08:45:52.241Z,916.00
2023-05-24T08:46:52.169Z,924.00
2023-05-24T08:47:52.275Z,932.00
2023-05-24T08:48:52.240Z,936.00
2023-05-24T08:49:52.142Z,944.00
2023-05-24T08:50:52.114Z,964.00
2023-05-24T08:51:52.132Z,996.00
2023-05-24T08:52:52.099Z,1012.00
2023-05-24T08:53:52.114Z,1032.00
2023-05-24T08:54:52.086Z,1028.00
2023-05-24T08:55:52.051Z,1024.00
2023-05-24T08:56:52.037Z,1012.00
2023-05-24T08:57:52.059Z,988.00
2023-05-24T08:58:52.017Z,960.00
2023-05-24T08:59:52.009Z,928.00
2023-05-24T09:00:51.978Z,892.00
2023-05-24T09:01:52.017Z,884.00
2023-05-24T09:02:52.008Z,908.00
2023-05-24T09:03:52.029Z,940.00
2023-05-24T09:04:51.926Z,964.00
2023-05-24T09:05:51.939Z,972.00
2023-05-24T09:06:51.915Z,988.00
2023-05-24T09:07:51.916Z,1004.00
2023-05-24T09:08:51.865Z,1008.00
2023-05-24T09:09:51.861Z,1004.00
2023-05-24T09:10:55.325Z,992.00
2023-05-24T09:11:51.877Z,988.00
2023-05-24T09:12:51.856Z,980.00
2023-05-24T09:13:51.838Z,968.00
2023-05-24T09:14:51.794Z,956.00
2023-05-24T09:15:51.793Z,936.00
2023-05-24T09:16:51.822Z,916.00
2023-05-24T09:17:51.808Z,896.00
2023-05-24T09:18:51.776Z,884.00
2023-05-24T09:19:51.745Z,872.00
2023-05-24T09:20:51.793Z,872.00
2023-05-24T09:21:51.717Z,872.00
2023-05-24T09:22:51.719Z,872.00
2023-05-24T09:23:51.706Z,888.00
2023-05-24T09:24:51.667Z,904.00
2023-05-24T09:25:51.660Z,912.00
2023-05-24T09:26:51.636Z,912.00
2023-05-24T09:27:51.656Z,916.00
2023-05-24T09:28:51.604Z,916.00
2023-05-24T09:29:51.688Z,924.00
2023-05-24T09:30:51.591Z,932.00
2023-05-24T09:31:51.627Z,940.00
2023-05-24T09:32:51.626Z,940.00
2023-05-24T09:33:51.562Z,944.00
2023-05-24T09:34:51.527Z,944.00
2023-05-24T09:35:51.535Z,932.00
2023-05-24T09:36:51.524Z,924.00
2023-05-24T09:37:51.506Z,912.00
2023-05-24T09:38:51.481Z,904.00
2023-05-24T09:39:51.485Z,896.00
2023-05-24T09:40:51.462Z,896.00
2023-05-24T09:41:51.467Z,892.00
2023-05-24T09:42:51.654Z,896.00
2023-05-24T09:43:51.433Z,916.00
2023-05-24T09:44:51.413Z,936.00
2023-05-24T09:45:51.442Z,952.00
2023-05-24T09:46:51.513Z,964.00
2023-05-24T10:03:21.296Z,1080.00
2023-05-24T10:04:21.333Z,1092.00
2023-05-24T10:05:21.213Z,1100.00
2023-05-24T10:06:21.208Z,1116.00
2023-05-24T10:07:21.179Z,1128.00
2023-05-24T10:08:21.181Z,1148.00
2023-05-24T10:09:21.178Z,1180.00
2023-05-24T10:10:21.153Z,1200.00
2023-05-24T10:11:21.139Z,1216.00
2023-05-24T10:12:21.117Z,1236.00
2023-05-24T10:13:21.110Z,1264.00
2023-05-24T10:14:21.106Z,1280.00
2023-05-24T10:15:21.083Z,1300.00
2023-05-24T10:16:21.093Z,1316.00
2023-05-24T10:17:21.128Z,1332.00
2023-05-24T10:18:21.100Z,1336.00
2023-05-24T10:19:21.022Z,1332.00
2023-05-24T10:20:21.173Z,1328.00
2023-05-24T10:21:21.011Z,1340.00
2023-05-24T10:22:20.989Z,1364.00
2023-05-24T10:23:20.979Z,1400.00
2023-05-24T10:24:20.953Z,1444.00
2023-05-24T10:25:20.956Z,1484.00
2023-05-24T10:26:20.929Z,1512.00
2023-05-24T10:27:20.937Z,1516.00
2023-05-24T10:28:20.904Z,1504.00
2023-05-24T10:29:20.902Z,1496.00
2023-05-24T10:30:20.886Z,1492.00
2023-05-24T10:31:20.941Z,1476.00
2023-05-24T10:32:20.866Z,1496.00
2023-05-24T10:33:20.845Z,1544.00
2023-05-24T10:34:20.824Z,1576.00
2023-05-24T10:35:20.815Z,1576.00
2023-05-24T10:36:20.827Z,1556.00
2023-05-24T10:37:20.808Z,1552.00
2023-05-24T10:38:20.775Z,1536.00
2023-05-24T10:39:20.766Z,1508.00
2023-05-24T10:40:20.760Z,1496.00
2023-05-24T10:41:20.755Z,1476.00
2023-05-24T10:42:20.727Z,1452.00
2023-05-24T10:43:20.705Z,1444.00
2023-05-24T10:44:20.720Z,1448.00
2023-05-24T10:45:20.680Z,1452.00
2023-05-24T10:46:20.729Z,1472.00
2023-05-24T10:47:20.648Z,1496.00
2023-05-24T10:48:20.640Z,1528.00
2023-05-24T10:49:20.632Z,1536.00
2023-05-24T10:50:20.636Z,1512.00
2023-05-24T10:51:20.617Z,1484.00
2023-05-24T10:52:20.629Z,1472.00
2023-05-24T10:53:20.581Z,1432.00
2023-05-24T10:54:20.575Z,1408.00
2023-05-24T10:55:20.582Z,1388.00
2023-05-24T10:56:20.577Z,1388.00
2023-05-24T10:57:20.541Z,1396.00
2023-05-24T10:58:20.514Z,1400.00
2023-05-24T10:59:20.504Z,1424.00
2023-05-24T11:00:33.788Z,1444.00
2023-05-24T11:01:21.499Z,1444.00
2023-05-24T11:02:20.509Z,1440.00
2023-05-24T11:03:20.457Z,1448.00
2023-05-24T11:04:20.433Z,1468.00
2023-05-24T11:05:20.454Z,1492.00
2023-05-24T11:06:20.399Z,1524.00
2023-05-24T11:07:20.409Z,1540.00
2023-05-24T11:08:20.377Z,1568.00
2023-05-24T11:09:20.488Z,1592.00
2023-05-24T11:10:20.372Z,1620.00
2023-05-24T11:11:26.644Z,1624.00
2023-05-24T11:12:21.338Z,1624.00
2023-05-24T11:13:20.318Z,1624.00
2023-05-24T11:14:20.322Z,1600.00
2023-05-24T11:15:20.310Z,1564.00
2023-05-24T11:16:20.345Z,1536.00
2023-05-24T11:17:20.280Z,1532.00
2023-05-24T11:18:20.325Z,1556.00
2023-05-24T11:19:20.386Z,1596.00
2023-05-24T11:20:20.286Z,1640.00
2023-05-24T11:21:20.233Z,1680.00
2023-05-24T11:22:20.217Z,1716.00
2023-05-24T11:23:20.190Z,1744.00
2023-05-24T11:24:20.196Z,1752.00
2023-05-24T11:25:20.164Z,1748.00
2023-05-24T11:26:20.166Z,1760.00
2023-05-24T11:27:20.144Z,1772.00
2023-05-24T11:28:20.220Z,1788.00
2023-05-24T11:29:20.136Z,1800.00
2023-05-24T11:30:20.151Z,1800.00
2023-05-24T11:31:20.130Z,1800.00
2023-05-24T11:32:20.257Z,1824.00
2023-05-24T11:33:20.110Z,1852.00
2023-05-24T11:34:20.062Z,1916.00
2023-05-24T11:35:20.042Z,1964.00
2023-05-24T11:36:20.058Z,1992.00
2023-05-24T11:37:24.069Z,1972.00
2023-05-24T11:38:23.466Z,1932.00
2023-05-24T11:39:19.988Z,1916.00
2023-05-24T11:40:19.967Z,1860.00
2023-05-24T11:41:19.962Z,1760.00
2023-05-24T11:42:19.944Z,1712.00
2023-05-24T11:43:19.950Z,1676.00
2023-05-24T11:44:19.920Z,1664.00
2023-05-24T11:45:19.908Z,1692.00
2023-05-24T11:46:19.943Z,1696.00
2023-05-24T11:47:19.874Z,1696.00
2023-05-24T11:48:19.884Z,1704.00
2023-05-24T11:49:19.837Z,1676.00
2023-05-24T11:50:19.820Z,1656.00
2023-05-24T11:51:19.819Z,1636.00
2023-05-24T11:52:19.798Z,1616.00
2023-05-24T11:53:19.794Z,1584.00
2023-05-24T11:54:19.767Z,1556.00
2023-05-24T11:55:19.770Z,1520.00
2023-05-24T11:56:19.748Z,1516.00
2023-05-24T11:57:19.800Z,1528.00
2023-05-24T11:58:19.735Z,1560.00
2023-05-24T11:59:19.726Z,1596.00
2023-05-24T12:00:19.697Z,1640.00
2023-05-24T12:01:19.687Z,1672.00
2023-05-24T12:02:19.731Z,1672.00
2023-05-24T12:03:19.787Z,1704.00
2023-05-24T12:04:19.869Z,1720.00
2023-05-24T12:05:19.648Z,1692.00
2023-05-24T12:06:19.613Z,1732.00
2023-05-24T12:07:19.612Z,1692.00
2023-05-24T12:08:19.596Z,1680.00
2023-05-24T12:09:19.576Z,1676.00
2023-05-24T12:10:21.549Z,1688.00
2023-05-24T12:11:19.548Z,1704.00
2023-05-24T12:12:22.503Z,1676.00
2023-05-24T12:13:20.530Z,1644.00
2023-05-24T12:14:19.537Z,1636.00
2023-05-24T12:15:19.505Z,1656.00
2023-05-24T12:16:19.515Z,1648.00
2023-05-24T12:17:19.485Z,1660.00
2023-05-24T12:18:19.457Z,1668.00
2023-05-24T12:19:31.736Z,1716.00
2023-05-24T12:20:20.512Z,1728.00
2023-05-24T12:21:19.419Z,1736.00
2023-05-24T12:22:19.421Z,1728.00
2023-05-24T12:23:19.401Z,1740.00
2023-05-24T12:24:19.362Z,1724.00
2023-05-24T12:25:19.369Z,1724.00
2023-05-24T12:26:19.367Z,1740.00
2023-05-24T12:27:19.350Z,1704.00
2023-05-24T12:28:19.324Z,1776.00
2023-05-24T12:29:19.321Z,1812.00
2023-05-24T12:30:19.301Z,1892.00
2023-05-24T12:31:19.334Z,1972.00
2023-05-24T12:32:19.271Z,2016.00
2023-05-24T12:33:19.255Z,2060.00
2023-05-24T12:34:19.244Z,2004.00
2023-05-24T12:35:19.247Z,2060.00
2023-05-24T12:36:19.214Z,2108.00
2023-05-24T12:37:19.204Z,2144.00
2023-05-24T12:38:19.168Z,2136.00
2023-05-24T12:39:19.180Z,2124.00
2023-05-24T12:40:19.183Z,2160.00
2023-05-24T12:41:19.170Z,2200.00
2023-05-24T12:42:19.133Z,2100.00
2023-05-24T12:43:19.112Z,2108.00
2023-05-24T12:44:19.099Z,2104.00
2023-05-24T12:45:19.094Z,2072.00
2023-05-24T12:46:19.127Z,2072.00
2023-05-24T12:47:19.161Z,2076.00
2023-05-24T12:48:19.099Z,2156.00
2023-05-24T12:49:19.088Z,2176.00
2023-05-24T12:50:19.028Z,2188.00
2023-05-24T12:51:19.039Z,2220.00
2023-05-24T12:52:18.995Z,2312.00
2023-05-24T12:53:19.007Z,2336.00
2023-05-24T12:54:18.973Z,2436.00
2023-05-24T12:55:18.980Z,2352.00
2023-05-24T12:56:18.956Z,2528.00
2023-05-24T12:57:18.944Z,2508.00
2023-05-24T12:58:18.913Z,2380.00
2023-05-24T12:59:18.929Z,2496.00
2023-05-24T13:00:18.912Z,2448.00
2023-05-24T13:01:18.898Z,2444.00
2023-05-24T13:02:18.861Z,2704.00
2023-05-24T13:03:18.864Z,2688.00
2023-05-24T13:04:18.846Z,2824.00